Rechercher aéroport 
image banner adimage banner adimage banner ad
image banner ad

0P2 - Shoestring Aviation Airfield

Situé à Stewartstown, United States

ICAO - 0P2, IATA -

Données fournies par Airmate  

Information générale

Coordonnées: N39°47'47" W76°38'47"
Élévation : 1000 feet MSL.
Variation magnétique : -10° East
Voir autres Aéroports à Pennsylvania

Données opérationnelles

Special qualification required
Heure actuelle UTC:
Heure actuelle locale:
Météo à : KTHV - York ( 24 km )
METAR: KTHV 132123Z AUTO 19006KT 10SM BKN025 BKN031 24/18 A2985 RMK AO2 T02440183 $
Voir NOTAMs / SUP AIP / TFR affectant cet aéroport [VIEW]
Fréquences de communication: [VIEW]

Pistes:

Identifiant RWYQFULongueur (ft)Largeur (ft)SurfaceLDA (ft)
06U53°1000100GRASS
24U233°1000100GRASS
151000100GRASS
331000100GRASS

Coordonnées de l'aéroport

Adresse: Stewartstown United States

Vue satellite de 0P2